createdAt,value
2017-11-30T00:00:06.714Z,11.32
2017-11-30T00:02:34.186Z,13.27
2017-11-30T00:05:01.673Z,12.25
2017-11-30T00:07:29.177Z,13.43
2017-11-30T00:09:56.699Z,13.32
2017-11-30T00:12:24.171Z,12.70
2017-11-30T00:14:52.422Z,11.93
2017-11-30T00:17:19.923Z,11.43
2017-11-30T00:19:48.185Z,11.60
2017-11-30T00:22:16.432Z,11.02
2017-11-30T00:24:43.916Z,12.32
2017-11-30T00:27:12.219Z,10.40
2017-11-30T00:29:39.709Z,11.07
2017-11-30T00:32:07.190Z,10.15
2017-11-30T00:34:34.682Z,10.48
2017-11-30T00:37:02.948Z,10.35
2017-11-30T00:39:31.216Z,11.38
2017-11-30T00:41:58.700Z,10.27
2017-11-30T00:44:32.851Z,10.75
2017-11-30T00:47:00.335Z,10.90
2017-11-30T00:49:27.830Z,10.98
2017-11-30T00:51:56.100Z,10.65
2017-11-30T00:54:24.340Z,11.70
2017-11-30T00:56:51.844Z,11.57
2017-11-30T00:59:20.137Z,12.02
2017-11-30T01:01:47.662Z,10.40
2017-11-30T01:04:15.137Z,10.63
2017-11-30T01:06:43.411Z,11.18
2017-11-30T01:09:11.654Z,10.15
2017-11-30T01:11:39.132Z,10.25
2017-11-30T01:14:06.652Z,11.12
2017-11-30T01:16:34.129Z,10.98
2017-11-30T01:19:01.600Z,11.30
2017-11-30T01:21:29.116Z,11.45
2017-11-30T01:23:56.618Z,11.05
2017-11-30T01:26:24.157Z,10.65
2017-11-30T01:28:51.639Z,10.95
2017-11-30T01:31:19.124Z,10.30
2017-11-30T01:33:47.379Z,9.63
2017-11-30T01:36:15.651Z,10.50
2017-11-30T01:38:43.109Z,9.38
2017-11-30T01:41:10.622Z,10.43
2017-11-30T01:43:38.101Z,9.70
2017-11-30T01:46:05.569Z,9.63
2017-11-30T01:48:33.065Z,8.80
2017-11-30T01:51:01.313Z,10.25
2017-11-30T01:53:28.796Z,10.77
2017-11-30T01:55:57.077Z,10.63
2017-11-30T01:58:25.311Z,9.15
2017-11-30T02:00:53.583Z,11.35
2017-11-30T02:03:21.063Z,9.93
2017-11-30T02:05:48.573Z,10.43
2017-11-30T02:08:16.062Z,10.52
2017-11-30T02:10:43.561Z,12.05
2017-11-30T02:13:11.828Z,11.65
2017-11-30T02:15:40.107Z,12.20
2017-11-30T02:18:08.351Z,10.55
2017-11-30T02:20:35.863Z,10.55
2017-11-30T02:23:03.324Z,10.77
2017-11-30T02:25:30.825Z,11.43
2017-11-30T02:27:58.297Z,11.18
2017-11-30T02:30:25.824Z,10.50
2017-11-30T02:32:53.300Z,11.25
2017-11-30T02:35:20.775Z,11.93
2017-11-30T02:37:48.285Z,12.10
2017-11-30T02:40:15.766Z,11.52
2017-11-30T02:42:43.269Z,11.88
2017-11-30T02:45:11.546Z,12.02
2017-11-30T02:47:39.827Z,12.02
2017-11-30T02:50:08.095Z,12.15
2017-11-30T02:52:35.553Z,12.20
2017-11-30T02:55:03.816Z,13.70
2017-11-30T02:57:32.068Z,11.93
2017-11-30T02:59:59.564Z,13.02
2017-11-30T03:02:27.051Z,13.40
2017-11-30T03:04:54.540Z,13.27
2017-11-30T03:07:22.021Z,12.20
2017-11-30T03:09:49.492Z,12.60
2017-11-30T03:12:16.996Z,12.68
2017-11-30T03:14:44.509Z,13.50
2017-11-30T03:17:12.021Z,13.68
2017-11-30T03:19:39.496Z,13.13
2017-11-30T03:22:06.982Z,13.95
2017-11-30T03:24:34.485Z,15.55
2017-11-30T03:27:01.973Z,15.25
2017-11-30T03:29:29.511Z,14.65
2017-11-30T03:31:56.985Z,14.80
2017-11-30T03:34:24.498Z,14.90
2017-11-30T03:36:52.805Z,14.07
2017-11-30T03:39:20.293Z,15.60
2017-11-30T03:41:47.798Z,15.45
2017-11-30T03:44:16.033Z,15.65
2017-11-30T03:46:43.557Z,15.98
2017-11-30T03:49:11.048Z,16.95
2017-11-30T03:51:38.571Z,16.25
2017-11-30T03:54:06.059Z,16.73
2017-11-30T03:56:33.521Z,16.65
2017-11-30T03:59:01.053Z,18.25
2017-11-30T04:01:28.519Z,16.45
2017-11-30T04:03:56.025Z,16.15
2017-11-30T04:06:23.497Z,16.83
2017-11-30T04:08:51.783Z,18.23
2017-11-30T04:11:20.051Z,18.42
2017-11-30T04:13:48.356Z,17.75
2017-11-30T04:16:15.852Z,17.23
2017-11-30T04:18:43.329Z,17.33
2017-11-30T04:21:10.835Z,18.10
2017-11-30T04:23:38.316Z,17.62
2017-11-30T04:26:05.815Z,18.10
2017-11-30T04:28:34.069Z,17.60
2017-11-30T04:31:01.583Z,15.75
2017-11-30T04:33:29.059Z,17.20
2017-11-30T04:35:56.589Z,17.40
2017-11-30T04:38:24.053Z,14.82
2017-11-30T04:40:51.540Z,15.85
2017-11-30T04:43:19.044Z,15.98
2017-11-30T04:45:46.561Z,18.20
2017-11-30T04:48:14.025Z,18.08
2017-11-30T04:50:41.485Z,15.93
2017-11-30T04:53:08.981Z,16.10
2017-11-30T04:55:37.246Z,16.65
2017-11-30T04:58:04.740Z,16.85
2017-11-30T05:00:32.245Z,16.33
2017-11-30T05:02:59.745Z,15.55
2017-11-30T05:05:27.989Z,15.48
2017-11-30T05:07:55.492Z,16.90
2017-11-30T05:10:22.993Z,14.95
2017-11-30T05:12:50.456Z,15.07
2017-11-30T05:15:17.967Z,15.30
2017-11-30T05:17:45.450Z,15.45
2017-11-30T05:20:12.919Z,14.65
2017-11-30T05:22:40.436Z,17.62
2017-11-30T05:25:08.724Z,14.73
2017-11-30T05:27:36.211Z,13.38
2017-11-30T05:30:04.063Z,14.35
2017-11-30T05:32:31.570Z,14.40
2017-11-30T05:34:59.052Z,14.50
2017-11-30T05:37:27.337Z,15.45
2017-11-30T05:39:54.810Z,14.65
2017-11-30T05:42:22.331Z,14.38
2017-11-30T05:44:49.801Z,14.57
2017-11-30T05:47:18.063Z,15.32
2017-11-30T05:49:45.566Z,13.68
2017-11-30T05:52:13.084Z,14.30
2017-11-30T05:54:40.575Z,15.30
2017-11-30T05:57:08.064Z,14.95
2017-11-30T05:59:35.559Z,15.68
2017-11-30T06:02:03.075Z,14.93
2017-11-30T06:04:30.569Z,14.65
2017-11-30T06:06:58.099Z,15.02
2017-11-30T06:09:25.568Z,16.17
2017-11-30T06:11:53.072Z,17.17
2017-11-30T06:14:21.317Z,17.75
2017-11-30T06:16:48.817Z,16.58
2017-11-30T06:19:16.304Z,14.75
2017-11-30T06:21:43.788Z,15.73
2017-11-30T06:24:11.268Z,15.40
2017-11-30T06:26:39.535Z,15.40
2017-11-30T06:29:07.062Z,13.55
2017-11-30T06:31:34.553Z,13.52
2017-11-30T06:34:02.092Z,14.32
2017-11-30T06:36:29.573Z,13.68
2017-11-30T06:38:57.091Z,13.20
2017-11-30T06:41:24.556Z,12.70
2017-11-30T06:43:52.039Z,12.55
2017-11-30T06:46:19.535Z,15.75
2017-11-30T06:48:47.011Z,14.30
2017-11-30T06:51:14.523Z,15.02
2017-11-30T06:53:42.032Z,12.55
2017-11-30T06:56:09.550Z,14.55
2017-11-30T06:58:37.042Z,13.25
2017-11-30T07:01:04.521Z,12.90
2017-11-30T07:03:32.012Z,14.32
2017-11-30T07:05:59.499Z,14.63
2017-11-30T07:08:27.768Z,13.13
2017-11-30T07:10:56.003Z,12.10
2017-11-30T07:13:23.480Z,13.30
2017-11-30T07:15:51.002Z,14.57
2017-11-30T07:18:18.502Z,14.75
2017-11-30T07:20:46.042Z,15.73
2017-11-30T07:23:13.508Z,13.50
2017-11-30T07:25:41.025Z,15.45
2017-11-30T07:28:08.511Z,12.73
2017-11-30T07:30:35.987Z,12.02
2017-11-30T07:33:03.521Z,12.68
2017-11-30T07:35:31.032Z,15.15
2017-11-30T07:37:59.292Z,13.20
2017-11-30T07:40:26.776Z,10.30
2017-11-30T07:42:55.081Z,8.93
2017-11-30T07:45:22.539Z,7.50
2017-11-30T07:47:50.021Z,9.60
2017-11-30T07:50:17.534Z,3.70
2017-11-30T07:52:45.770Z,4.18
2017-11-30T07:55:13.291Z,4.15
2017-11-30T07:57:40.753Z,2.90
2017-11-30T08:00:08.216Z,3.90
2017-11-30T08:02:35.731Z,3.28
2017-11-30T08:05:03.975Z,2.60
2017-11-30T08:07:31.493Z,3.12
2017-11-30T08:09:58.962Z,3.78
2017-11-30T08:12:26.453Z,6.10
2017-11-30T08:14:53.929Z,4.10
2017-11-30T08:17:21.434Z,3.10
2017-11-30T08:19:48.920Z,3.33
2017-11-30T08:22:16.411Z,2.62
2017-11-30T08:24:43.869Z,2.83
2017-11-30T08:27:11.389Z,3.72
2017-11-30T08:29:38.882Z,3.00
2017-11-30T08:32:06.352Z,4.25
2017-11-30T08:34:34.621Z,3.40
2017-11-30T08:37:02.102Z,2.87
2017-11-30T08:39:29.575Z,3.35
2017-11-30T08:41:57.072Z,3.70
2017-11-30T08:44:24.549Z,4.15
2017-11-30T08:46:52.057Z,4.25
2017-11-30T08:49:19.521Z,4.72
2017-11-30T08:51:47.001Z,4.55
2017-11-30T08:54:14.509Z,3.28
2017-11-30T08:56:42.756Z,4.12
2017-11-30T08:59:10.265Z,4.05
2017-11-30T09:01:37.746Z,3.55
2017-11-30T09:04:05.245Z,5.90
2017-11-30T09:06:32.742Z,5.25
2017-11-30T09:09:00.223Z,4.10
2017-11-30T09:11:27.717Z,4.80
2017-11-30T09:13:55.188Z,5.57
2017-11-30T09:16:23.428Z,4.70
2017-11-30T09:18:50.921Z,5.10
2017-11-30T09:21:19.210Z,5.40
2017-11-30T09:23:47.453Z,5.90
2017-11-30T09:26:14.918Z,5.80
2017-11-30T09:28:42.408Z,5.45
2017-11-30T09:31:09.895Z,5.70
2017-11-30T09:33:37.396Z,5.90
2017-11-30T09:36:04.888Z,5.15
2017-11-30T09:38:32.357Z,6.43
2017-11-30T09:40:59.861Z,5.60
2017-11-30T09:43:27.340Z,6.78
2017-11-30T09:45:55.589Z,5.20
2017-11-30T09:48:23.080Z,5.70
2017-11-30T09:50:51.361Z,6.40
2017-11-30T09:53:19.592Z,6.15
2017-11-30T09:55:47.096Z,5.35
2017-11-30T09:58:15.357Z,6.18
2017-11-30T10:00:43.624Z,6.62
2017-11-30T10:03:11.110Z,4.97
2017-11-30T10:05:39.348Z,5.85
2017-11-30T10:08:06.845Z,6.32
2017-11-30T10:10:34.330Z,5.93
2017-11-30T10:13:01.833Z,6.07
2017-11-30T10:15:29.333Z,5.55
2017-11-30T10:17:56.822Z,4.75
2017-11-30T10:20:24.322Z,5.32
2017-11-30T10:22:51.782Z,6.10
2017-11-30T10:25:20.045Z,6.18
2017-11-30T10:27:47.524Z,5.87
2017-11-30T10:30:15.782Z,5.72
2017-11-30T10:32:43.278Z,7.25
2017-11-30T10:35:10.776Z,6.55
2017-11-30T10:37:38.255Z,6.07
2017-11-30T10:40:05.725Z,5.60
2017-11-30T10:42:33.237Z,5.03
2017-11-30T10:45:00.786Z,5.40
2017-11-30T10:47:28.277Z,5.00
2017-11-30T10:49:55.782Z,3.70
2017-11-30T10:52:23.999Z,4.25
2017-11-30T10:54:51.532Z,5.72
2017-11-30T10:57:19.041Z,4.85
2017-11-30T10:59:48.406Z,4.80
2017-11-30T11:02:15.932Z,4.12
2017-11-30T11:04:44.225Z,5.30
2017-11-30T11:07:11.711Z,5.15
2017-11-30T11:09:39.172Z,5.53
2017-11-30T11:12:06.661Z,4.97
2017-11-30T11:14:34.172Z,4.82
2017-11-30T11:17:01.674Z,4.80
2017-11-30T15:19:15.564Z,9.80
2017-11-30T15:21:43.844Z,10.73
2017-11-30T15:24:12.486Z,8.73
2017-11-30T15:26:39.950Z,9.52
2017-11-30T15:29:07.462Z,9.43
2017-11-30T15:31:35.714Z,10.02
2017-11-30T15:34:03.253Z,9.80
2017-11-30T15:36:30.722Z,9.70
2017-11-30T15:38:58.250Z,10.10
2017-11-30T15:41:25.759Z,10.52
2017-11-30T15:43:53.262Z,8.55
2017-11-30T15:46:20.718Z,7.50
2017-11-30T15:48:48.216Z,9.85
2017-11-30T15:51:15.688Z,11.15
2017-11-30T15:53:43.970Z,9.48
2017-11-30T15:56:12.240Z,11.80
2017-11-30T15:58:39.745Z,10.65
2017-11-30T16:01:07.231Z,11.40
2017-11-30T16:03:34.711Z,10.40
2017-11-30T16:06:02.198Z,12.65
2017-11-30T16:08:29.707Z,34.00
2017-11-30T16:10:57.219Z,29.27
2017-11-30T16:13:24.696Z,23.83
2017-11-30T16:15:52.204Z,16.70
2017-11-30T16:18:19.711Z,15.85
2017-11-30T16:20:47.210Z,14.38
2017-11-30T16:23:14.699Z,19.92
2017-11-30T16:25:42.968Z,15.48
2017-11-30T16:28:11.224Z,11.80
2017-11-30T16:30:38.722Z,10.35
2017-11-30T16:33:06.205Z,28.52
2017-11-30T16:35:33.720Z,49.08
2017-11-30T16:38:01.995Z,41.85
2017-11-30T16:40:30.303Z,30.48
2017-11-30T16:42:57.803Z,33.95
2017-11-30T16:45:25.292Z,30.85
2017-11-30T16:47:53.576Z,87.37
2017-11-30T16:50:21.811Z,76.22
2017-11-30T16:52:49.319Z,127.10
2017-11-30T16:55:17.600Z,97.47
2017-11-30T16:57:45.171Z,43.05
2017-11-30T17:00:12.672Z,101.72
2017-11-30T17:02:40.149Z,49.20
2017-11-30T17:05:07.720Z,59.80
2017-11-30T17:07:35.242Z,48.13
2017-11-30T17:10:02.739Z,42.15
2017-11-30T17:12:30.262Z,38.30
2017-11-30T17:14:57.782Z,34.17
2017-11-30T17:17:25.263Z,29.08
2017-11-30T17:19:52.772Z,26.37
2017-11-30T17:22:20.281Z,22.50
2017-11-30T17:24:47.783Z,19.67
2017-11-30T17:27:15.294Z,16.30
2017-11-30T17:29:42.779Z,11.95
2017-11-30T17:32:10.272Z,16.10
2017-11-30T17:34:38.586Z,25.62
2017-11-30T17:37:06.069Z,25.67
2017-11-30T17:39:33.592Z,23.95
2017-11-30T17:42:01.071Z,16.52
2017-11-30T17:44:28.596Z,11.70
2017-11-30T17:46:56.897Z,11.18
2017-11-30T17:49:24.379Z,8.93
2017-11-30T17:51:51.852Z,8.68
2017-11-30T17:54:19.374Z,10.13
2017-11-30T17:56:46.860Z,12.02
2017-11-30T17:59:14.378Z,13.05
2017-11-30T18:01:41.899Z,13.30
2017-11-30T18:04:09.453Z,13.75
2017-11-30T18:06:36.988Z,12.73
2017-11-30T18:09:04.496Z,12.35
2017-11-30T18:11:32.784Z,11.07
2017-11-30T18:14:01.037Z,11.65
2017-11-30T18:16:28.526Z,9.88
2017-11-30T18:18:57.426Z,10.50
2017-11-30T18:21:24.914Z,11.02
2017-11-30T18:23:52.479Z,10.88
2017-11-30T18:26:19.964Z,9.60
2017-11-30T18:28:47.498Z,9.48
2017-11-30T18:31:14.967Z,10.55
2017-11-30T18:33:42.527Z,11.40
2017-11-30T18:36:09.976Z,11.45
2017-11-30T18:38:37.454Z,9.65
2017-11-30T18:41:04.978Z,8.80
2017-11-30T18:43:33.244Z,9.18
2017-11-30T18:46:00.758Z,10.25
2017-11-30T18:48:28.249Z,12.57
2017-11-30T18:50:55.784Z,18.77
2017-11-30T18:53:24.056Z,20.35
2017-11-30T18:55:52.290Z,24.10
2017-11-30T18:58:19.814Z,21.62
2017-11-30T19:00:47.308Z,19.70
2017-11-30T19:03:14.813Z,14.95
2017-11-30T19:05:43.066Z,11.77
2017-11-30T19:08:10.540Z,13.10
2017-11-30T19:10:38.065Z,11.63
2017-11-30T19:13:05.552Z,10.18
2017-11-30T19:15:33.054Z,10.55
2017-11-30T19:18:00.541Z,9.10
2017-11-30T19:20:28.072Z,11.52
2017-11-30T19:22:55.549Z,14.13
2017-11-30T19:25:23.051Z,16.87
2017-11-30T19:27:50.589Z,14.52
2017-11-30T19:30:18.062Z,15.82
2017-11-30T19:32:45.557Z,15.48
2017-11-30T19:35:13.827Z,15.52
2017-11-30T19:37:42.086Z,13.60
2017-11-30T19:40:09.637Z,13.55
2017-11-30T19:42:37.108Z,11.80
2017-11-30T19:45:05.361Z,10.77
2017-11-30T19:47:32.896Z,9.40
2017-11-30T19:50:00.394Z,9.25
2017-11-30T19:52:27.953Z,10.60
2017-11-30T19:54:55.450Z,10.23
2017-11-30T19:57:22.935Z,9.73
2017-11-30T19:59:50.528Z,10.85
2017-11-30T20:02:18.024Z,10.45
2017-11-30T20:04:45.513Z,9.68
2017-11-30T20:07:13.059Z,9.25
2017-11-30T20:09:40.540Z,12.85
2017-11-30T20:12:08.488Z,10.75
2017-11-30T20:14:35.986Z,10.18
2017-11-30T20:17:03.589Z,12.00
2017-11-30T20:19:31.079Z,11.25
2017-11-30T20:21:58.559Z,9.63
2017-11-30T20:24:26.133Z,7.90
2017-11-30T20:26:53.643Z,10.02
2017-11-30T20:29:21.127Z,10.43
2017-11-30T20:31:48.720Z,8.52
2017-11-30T20:34:16.996Z,9.75
2017-11-30T20:36:44.534Z,9.57
2017-11-30T20:39:12.015Z,7.70
2017-11-30T20:41:40.370Z,9.50
2017-11-30T20:44:07.880Z,8.70
2017-11-30T20:46:35.367Z,10.40
2017-11-30T20:49:02.990Z,8.75
2017-11-30T20:51:30.464Z,9.75
2017-11-30T20:53:57.960Z,8.70
2017-11-30T20:56:25.459Z,8.05
2017-11-30T20:58:53.758Z,8.73
2017-11-30T21:01:21.695Z,8.93
2017-11-30T21:03:49.958Z,8.63
2017-11-30T21:06:17.482Z,7.85
2017-11-30T21:08:45.068Z,10.27
2017-11-30T21:11:12.643Z,15.10
2017-11-30T21:13:40.932Z,15.65
2017-11-30T21:16:09.197Z,14.02
2017-11-30T21:18:37.016Z,13.23
2017-11-30T21:21:05.232Z,11.12
2017-11-30T21:23:32.951Z,10.30
2017-11-30T21:26:00.469Z,10.13
2017-11-30T21:28:27.944Z,10.50
2017-11-30T21:30:56.277Z,10.23
2017-11-30T21:33:23.803Z,10.45
2017-11-30T21:35:51.311Z,10.60
2017-11-30T21:38:18.866Z,11.85
2017-11-30T21:40:46.392Z,14.32
2017-11-30T21:43:14.306Z,16.02
2017-11-30T21:45:41.795Z,13.25
2017-11-30T21:48:10.358Z,13.02
2017-11-30T21:50:37.827Z,10.35
2017-11-30T21:53:06.188Z,8.70
2017-11-30T21:55:34.498Z,10.23
2017-11-30T21:58:02.051Z,8.85
2017-11-30T22:00:29.520Z,10.77
2017-11-30T22:02:56.996Z,11.57
2017-11-30T22:05:24.512Z,11.23
2017-11-30T22:07:52.801Z,11.60
2017-11-30T22:10:21.128Z,20.92
2017-11-30T22:12:48.659Z,16.23
2017-11-30T22:15:16.163Z,17.70
2017-11-30T22:17:44.768Z,17.08
2017-11-30T22:20:12.317Z,13.88
2017-11-30T22:22:39.804Z,14.10
2017-11-30T22:25:07.392Z,13.55
2017-11-30T22:27:34.862Z,16.35
2017-11-30T22:30:04.760Z,17.08
2017-11-30T22:32:32.234Z,17.40
2017-11-30T22:35:00.580Z,13.90
2017-11-30T22:37:28.811Z,13.93
2017-11-30T22:39:56.369Z,12.15
2017-11-30T22:42:23.890Z,11.18
2017-11-30T22:44:51.372Z,10.63
2017-11-30T22:47:18.879Z,10.88
2017-11-30T22:49:47.151Z,11.40
2017-11-30T22:52:15.396Z,12.68
2017-11-30T22:54:42.903Z,11.90
2017-11-30T22:57:10.411Z,11.68
2017-11-30T22:59:38.015Z,13.20
2017-11-30T23:02:06.255Z,11.73
2017-11-30T23:04:33.741Z,8.38
2017-11-30T23:07:02.020Z,8.05
2017-11-30T23:09:30.289Z,7.65
2017-11-30T23:11:57.822Z,7.32
2017-11-30T23:14:25.300Z,9.15
2017-11-30T23:16:52.797Z,9.70
2017-11-30T23:19:20.310Z,9.57
2017-11-30T23:21:47.783Z,8.95
2017-11-30T23:24:15.303Z,9.43
2017-11-30T23:26:42.781Z,11.52
2017-11-30T23:29:10.293Z,10.02
2017-11-30T23:31:37.794Z,9.68
2017-11-30T23:34:05.300Z,10.52
2017-11-30T23:36:32.832Z,9.55
2017-11-30T23:39:00.315Z,10.05
2017-11-30T23:41:27.840Z,8.63
2017-11-30T23:43:55.354Z,6.30
2017-11-30T23:46:22.841Z,6.00
2017-11-30T23:48:50.375Z,5.40
2017-11-30T23:51:17.896Z,5.75
2017-11-30T23:53:46.134Z,6.20
2017-11-30T23:56:13.671Z,5.75
2017-11-30T23:58:41.143Z,6.43
